Time;durP1;ratioP1;P1;durP2;ratioP2;P2;SDS_P1;SDS_P2;PMS_P1;PMS_P2;Temp;Humidity;BMP_temperature;BMP_pressure;BME280_temperature;BME280_humidity;BME280_pressure;Samples;Min_cycle;Max_cycle;Signal;HPM_P1;HPM_P2
2022/12/09 00:04:32;;;;;;;5.10;3.35;;;;;;;19.51;45.94;95917.69;10495927;28;20048;-45
2022/12/09 00:09:52;;;;;;;4.32;2.97;;;;;;;19.49;46.04;95923.44;10495870;28;20044;-45
2022/12/09 00:15:11;;;;;;;3.17;2.88;;;;;;;19.47;46.00;95919.53;10495368;28;20483;-46
2022/12/09 00:20:31;;;;;;;2.80;2.47;;;;;;;19.45;45.96;95922.56;10483527;28;20048;-45
2022/12/09 00:25:50;;;;;;;3.53;2.83;;;;;;;19.44;46.03;95925.59;10509155;28;20037;-45
2022/12/09 00:31:13;;;;;;;3.50;2.90;;;;;;;19.43;46.10;95915.94;10495349;28;20048;-47
2022/12/09 00:36:32;;;;;;;3.28;2.72;;;;;;;19.41;46.02;95921.69;10494621;28;20144;-46
2022/12/09 00:41:52;;;;;;;3.55;2.90;;;;;;;19.39;46.09;95921.25;10494835;28;20064;-46
2022/12/09 00:47:12;;;;;;;4.13;2.78;;;;;;;19.37;45.97;95915.41;10497365;28;20060;-47
2022/12/09 00:52:31;;;;;;;3.20;2.78;;;;;;;19.35;46.05;95921.13;10501846;28;20056;-46
2022/12/09 00:57:51;;;;;;;3.80;3.00;;;;;;;19.33;46.08;95920.69;10491139;28;20055;-48
2022/12/09 01:03:15;;;;;;;3.80;2.92;;;;;;;19.32;46.07;95927.22;10501871;28;20408;-45
2022/12/09 01:08:34;;;;;;;3.45;3.00;;;;;;;19.31;46.10;95927.56;10501931;28;20052;-46
2022/12/09 01:13:59;;;;;;;4.35;2.83;;;;;;;19.30;46.07;95937.56;10501731;28;20098;-45
2022/12/09 01:19:20;;;;;;;3.58;2.78;;;;;;;19.28;45.98;95949.84;10501765;28;20051;-46
2022/12/09 01:24:39;;;;;;;3.20;2.85;;;;;;;19.26;45.91;95942.09;10501116;28;20052;-46
2022/12/09 01:29:59;;;;;;;3.75;3.00;;;;;;;19.26;45.93;95941.31;10501230;28;20044;-45
2022/12/09 01:35:18;;;;;;;3.45;2.92;;;;;;;19.24;45.88;95940.88;10501053;28;20063;-46
2022/12/09 01:40:44;;;;;;;4.65;3.00;;;;;;;19.21;45.97;95934.25;10500342;28;20060;-47
2022/12/09 01:46:03;;;;;;;3.33;2.95;;;;;;;19.19;45.98;95923.00;10500709;28;20114;-47
2022/12/09 01:51:23;;;;;;;3.20;2.90;;;;;;;19.16;45.87;95919.06;10489194;28;20067;-48
2022/12/09 01:56:43;;;;;;;3.20;2.90;;;;;;;19.15;45.87;95904.00;10485078;28;20052;-47
2022/12/09 02:02:03;;;;;;;3.25;2.95;;;;;;;19.13;45.95;95900.84;10481121;28;20492;-58
2022/12/09 02:07:23;;;;;;;2.75;2.47;;;;;;;19.12;45.82;95899.28;10499281;28;20053;-58
2022/12/09 02:13:03;;;;;;;3.00;2.70;;;;;;;19.11;45.87;95889.63;10498707;28;20048;-58
2022/12/09 02:18:41;;;;;;;3.25;2.95;;;;;;;19.10;45.77;95890.72;10472159;28;20053;-58
2022/12/09 02:24:34;;;;;;;3.47;2.85;;;;;;;19.07;45.53;95888.72;10488520;28;20395;-56
2022/12/09 02:30:20;;;;;;;3.40;3.03;;;;;;;19.06;45.70;95887.16;10486570;28;20540;-56
2022/12/09 02:35:49;;;;;;;3.17;2.70;;;;;;;19.05;45.72;95884.78;10497595;28;20506;-58
2022/12/09 02:41:18;;;;;;;3.17;2.85;;;;;;;19.03;45.67;95878.94;10482649;28;20049;-58
2022/12/09 02:46:41;;;;;;;3.35;2.90;;;;;;;19.02;45.64;95878.16;10459451;28;20411;-58
2022/12/09 02:52:03;;;;;;;3.10;2.80;;;;;;;19.00;45.63;95883.13;10496053;28;20101;-58
2022/12/09 02:57:25;;;;;;;3.75;2.83;;;;;;;18.98;45.64;95876.50;10482513;28;20056;-58
2022/12/09 03:02:46;;;;;;;2.67;2.45;;;;;;;18.96;45.65;95869.53;10499975;28;20039;-58
2022/12/09 03:08:09;;;;;;;4.28;3.10;;;;;;;18.95;45.70;95867.97;10497384;28;20063;-58
2022/12/09 03:14:02;;;;;;;3.33;2.97;;;;;;;18.93;45.72;95853.22;10510525;28;20094;-58
2022/12/09 03:19:26;;;;;;;3.53;2.90;;;;;;;18.92;45.74;95860.53;10489885;28;20426;-59
2022/12/09 03:25:08;;;;;;;3.35;2.88;;;;;;;18.90;45.80;95856.63;10497031;28;20098;-58
2022/12/09 03:30:34;;;;;;;2.97;2.67;;;;;;;18.89;45.68;95860.44;10488182;28;20051;-58
2022/12/09 03:35:57;;;;;;;3.47;2.80;;;;;;;18.87;45.76;95854.59;10495097;28;20040;-58
2022/12/09 03:41:22;;;;;;;3.55;3.05;;;;;;;18.86;45.72;95842.25;10484431;28;20053;-59
2022/12/09 03:46:42;;;;;;;4.70;2.80;;;;;;;18.83;45.55;95837.53;10509649;28;20033;-58
2022/12/09 03:52:05;;;;;;;3.28;2.72;;;;;;;18.82;45.86;95833.25;10509592;28;20052;-57
2022/12/09 03:57:24;;;;;;;3.97;3.10;;;;;;;18.80;45.84;95825.50;10494090;28;20055;-58
2022/12/09 04:02:45;;;;;;;3.08;2.65;;;;;;;18.78;45.80;95825.03;10470236;28;20102;-58
2022/12/09 04:08:04;;;;;;;3.30;2.90;;;;;;;18.78;45.82;95838.53;10496156;28;20052;-58
2022/12/09 04:13:24;;;;;;;2.85;2.55;;;;;;;18.75;45.71;95829.19;10492931;28;20056;-58
2022/12/09 04:18:43;;;;;;;3.50;3.20;;;;;;;18.74;45.78;95827.63;10496202;28;20041;-58
2022/12/09 04:24:03;;;;;;;3.08;2.78;;;;;;;18.72;45.77;95816.41;10500455;28;20553;-58
2022/12/09 04:29:23;;;;;;;3.35;2.97;;;;;;;18.70;45.78;95813.25;10517539;28;20048;-58
2022/12/09 04:34:42;;;;;;;3.13;2.83;;;;;;;18.69;45.67;95819.75;10503100;28;20064;-58
2022/12/09 04:40:06;;;;;;;3.25;2.90;;;;;;;18.70;45.71;95815.16;10491869;28;20053;-58
2022/12/09 04:45:27;;;;;;;3.97;2.85;;;;;;;18.68;45.68;95814.72;10502246;28;20057;-58
2022/12/09 04:50:46;;;;;;;3.17;2.88;;;;;;;18.66;45.64;95800.78;10502509;28;20048;-58
2022/12/09 04:56:10;;;;;;;3.53;3.22;;;;;;;18.64;45.69;95809.22;10506948;28;20037;-58
2022/12/09 05:01:30;;;;;;;3.00;2.70;;;;;;;18.63;45.75;95801.47;10501306;28;20188;-58
2022/12/09 05:06:49;;;;;;;3.25;2.90;;;;;;;18.61;45.74;95799.13;10501279;28;20048;-58
2022/12/09 05:12:08;;;;;;;3.92;3.10;;;;;;;18.60;45.60;95797.53;10500782;28;20449;-56
2022/12/09 05:17:28;;;;;;;3.25;2.60;;;;;;;18.59;45.77;95785.19;10492721;28;20056;-58
2022/12/09 05:22:47;;;;;;;3.10;2.63;;;;;;;18.58;45.69;95783.59;10514797;28;20033;-58
2022/12/09 05:28:06;;;;;;;3.30;2.97;;;;;;;18.57;45.58;95787.44;10487877;28;20055;-57
2022/12/09 05:33:27;;;;;;;3.70;3.22;;;;;;;18.56;45.56;95789.34;10490583;28;20037;-58
2022/12/09 05:38:47;;;;;;;3.08;2.63;;;;;;;18.57;46.11;95793.63;10500689;28;20056;-58
2022/12/09 05:44:06;;;;;;;3.10;2.80;;;;;;;18.58;45.93;95792.50;10500753;28;20045;-56
2022/12/09 05:49:26;;;;;;;3.95;2.70;;;;;;;18.59;46.10;95795.97;10499812;28;20051;-52
2022/12/09 05:54:45;;;;;;;23.63;5.80;;;;;;;18.60;46.18;95808.31;10499437;28;20400;-58
2022/12/09 06:00:06;;;;;;;12.43;4.45;;;;;;;18.62;46.43;95792.59;10492071;28;20044;-58
2022/12/09 06:05:31;;;;;;;12.70;4.85;;;;;;;18.63;46.39;95788.75;10497736;28;20048;-57
2022/12/09 06:10:50;;;;;;;12.63;4.03;;;;;;;18.66;46.63;95785.41;10483836;28;20044;-57
2022/12/09 06:16:10;;;;;;;9.40;3.80;;;;;;;18.68;46.68;95785.03;10496887;28;20041;-57
2022/12/09 06:21:30;;;;;;;10.35;3.92;;;;;;;18.71;46.75;95781.66;10498322;28;20048;-57
2022/12/09 06:26:52;;;;;;;10.48;4.60;;;;;;;18.72;46.85;95794.03;10496551;28;20052;-56
2022/12/09 06:32:11;;;;;;;8.40;3.83;;;;;;;18.73;46.74;95785.56;10511301;28;20044;-56
2022/12/09 06:37:31;;;;;;;8.32;3.60;;;;;;;18.74;46.82;95781.75;10512068;28;20534;-57
2022/12/09 06:42:51;;;;;;;7.00;3.67;;;;;;;18.77;46.81;95778.38;10497543;28;20044;-56
2022/12/09 06:48:10;;;;;;;8.32;4.03;;;;;;;18.81;46.79;95769.63;10497253;28;20075;-56
2022/12/09 06:53:29;;;;;;;10.60;4.15;;;;;;;18.84;46.77;95768.94;10493150;28;20044;-57
2022/12/09 06:58:49;;;;;;;10.38;4.05;;;;;;;18.88;46.82;95769.81;10498002;28;20064;-58
2022/12/09 07:04:11;;;;;;;8.18;3.80;;;;;;;18.90;46.94;95767.56;10509668;28;20048;-56
2022/12/09 07:09:30;;;;;;;6.57;4.00;;;;;;;18.93;46.67;95769.56;10473063;28;20106;-55
2022/12/09 07:14:49;;;;;;;9.40;4.43;;;;;;;18.95;46.60;95775.41;10497441;28;20044;-57
2022/12/09 07:20:09;;;;;;;8.98;4.10;;;;;;;18.98;46.63;95772.03;10496990;28;20057;-56
2022/12/09 07:25:29;;;;;;;7.40;3.80;;;;;;;19.02;46.74;95756.69;10509810;28;20048;-58
2022/12/09 07:30:48;;;;;;;7.07;4.30;;;;;;;19.05;46.94;95756.03;10497020;28;20048;-57
2022/12/09 07:36:09;;;;;;;6.20;3.83;;;;;;;19.08;46.93;95754.53;10494566;28;20052;-58
2022/12/09 07:41:29;;;;;;;7.10;3.78;;;;;;;19.12;46.72;95752.72;10490993;28;20110;-59
2022/12/09 07:46:49;;;;;;;7.20;4.18;;;;;;;19.16;46.84;95759.75;10505041;28;20048;-58
2022/12/09 07:52:08;;;;;;;6.55;3.70;;;;;;;19.19;47.02;95757.50;10495533;28;20044;-56
2022/12/09 07:57:27;;;;;;;5.78;4.00;;;;;;;19.23;47.04;95761.06;10489711;28;20102;-58
2022/12/09 08:02:47;;;;;;;6.60;3.97;;;;;;;19.26;46.77;95755.00;10504110;28;20048;-57
2022/12/09 08:08:06;;;;;;;6.55;3.88;;;;;;;19.29;47.08;95763.19;10503483;28;20467;-57
2022/12/09 08:13:25;;;;;;;8.35;3.53;;;;;;;19.33;47.10;95761.34;10515710;28;20419;-55
2022/12/09 08:18:45;;;;;;;7.68;3.63;;;;;;;19.39;46.86;95761.88;10502688;28;20053;-57
2022/12/09 08:24:06;;;;;;;7.22;3.72;;;;;;;19.41;47.05;95753.44;10487727;28;20057;-55
2022/12/09 08:29:26;;;;;;;5.45;3.97;;;;;;;19.44;46.88;95761.63;10486623;28;20056;-56
2022/12/09 08:34:45;;;;;;;4.03;3.22;;;;;;;19.48;46.87;95765.22;10487269;28;20510;-57
2022/12/09 08:40:05;;;;;;;5.03;3.55;;;;;;;19.51;46.79;95761.78;10489763;28;20057;-55
2022/12/09 08:45:25;;;;;;;9.05;3.72;;;;;;;19.53;46.88;95754.13;10502571;28;20064;-57
2022/12/09 08:50:44;;;;;;;5.40;3.63;;;;;;;19.59;46.67;95759.28;10501926;28;20052;-57
2022/12/09 08:56:09;;;;;;;4.90;3.33;;;;;;;19.61;46.60;95757.00;10501269;28;20049;-56
2022/12/09 09:01:33;;;;;;;6.93;3.78;;;;;;;19.64;46.62;95751.69;10495581;28;20048;-57
2022/12/09 09:06:53;;;;;;;7.28;3.53;;;;;;;19.68;46.56;95751.75;10500106;28;20074;-56
2022/12/09 09:12:12;;;;;;;5.10;3.50;;;;;;;19.69;46.48;95748.72;10500819;28;20052;-57
2022/12/09 09:17:31;;;;;;;5.47;3.35;;;;;;;19.73;46.48;95754.22;10501314;28;20060;-58
2022/12/09 09:22:50;;;;;;;4.35;3.53;;;;;;;19.77;46.61;95755.09;10501134;28;20048;-57
2022/12/09 09:28:10;;;;;;;6.45;3.67;;;;;;;19.78;46.68;95740.47;10498021;28;20053;-56
2022/12/09 09:33:29;;;;;;;4.68;2.92;;;;;;;19.83;46.70;95729.38;10513205;28;20078;-57
2022/12/09 09:38:50;;;;;;;5.80;3.47;;;;;;;19.85;46.61;95712.81;10498720;28;20079;-56
2022/12/09 09:44:33;;;;;;;3.65;3.05;;;;;;;19.87;46.48;95697.81;10499771;28;20055;-55
2022/12/09 09:50:32;;;;;;;3.88;3.30;;;;;;;19.90;45.89;95694.41;10483855;28;20083;-53
2022/12/09 09:55:58;;;;;;;5.88;3.80;;;;;;;19.93;46.20;95680.19;10498950;28;20074;-57
2022/12/09 10:01:18;;;;;;;4.35;2.97;;;;;;;19.97;46.17;95669.44;10493297;28;20041;-57
2022/12/09 10:06:41;;;;;;;3.55;3.10;;;;;;;19.99;46.15;95652.88;10512199;28;20470;-57
2022/12/09 10:12:28;;;;;;;3.85;3.13;;;;;;;20.02;45.88;95630.53;10512548;28;20472;-56
2022/12/09 10:17:50;;;;;;;5.65;3.28;;;;;;;20.03;46.06;95621.28;10497120;28;20055;-58
2022/12/09 10:23:14;;;;;;;3.65;3.10;;;;;;;20.05;45.96;95619.00;10497172;28;20518;-57
2022/12/09 10:28:38;;;;;;;5.55;3.22;;;;;;;20.06;45.81;95607.06;10505169;28;20040;-57
2022/12/09 10:33:58;;;;;;;3.85;3.08;;;;;;;20.06;45.89;95617.88;10497320;28;20122;-57
2022/12/09 10:39:19;;;;;;;4.43;2.88;;;;;;;20.07;45.87;95620.22;10495638;28;20061;-57
2022/12/09 10:44:38;;;;;;;3.30;2.67;;;;;;;20.09;45.87;95619.84;10511485;28;20044;-54
2022/12/09 10:49:58;;;;;;;3.35;2.78;;;;;;;20.08;45.80;95619.09;10492579;28;20052;-57
2022/12/09 10:55:30;;;;;;;4.75;3.20;;;;;;;20.08;45.63;95594.75;10495879;28;20518;-57
2022/12/09 11:01:03;;;;;;;3.30;3.00;;;;;;;20.09;45.63;95606.34;10496345;28;20069;-57
2022/12/09 11:06:25;;;;;;;3.22;2.83;;;;;;;20.10;45.54;95610.63;10470448;28;20055;-57
2022/12/09 11:11:47;;;;;;;4.38;3.40;;;;;;;20.08;45.36;95608.25;10481582;28;20044;-57
2022/12/09 11:17:13;;;;;;;3.25;2.83;;;;;;;20.08;45.07;95608.25;10496254;28;20062;-58
2022/12/09 11:22:37;;;;;;;4.47;3.25;;;;;;;20.07;44.80;95597.81;10495846;28;20449;-57
2022/12/09 11:28:15;;;;;;;3.90;3.50;;;;;;;20.06;44.48;95591.63;10496137;28;20456;-57
2022/12/09 11:33:37;;;;;;;4.40;3.65;;;;;;;20.07;44.55;95597.81;10491689;28;20549;-57
2022/12/09 11:39:33;;;;;;;4.97;3.55;;;;;;;20.06;44.16;95593.53;10476839;28;20526;-57
2022/12/09 11:44:58;;;;;;;4.00;3.53;;;;;;;20.01;42.47;95586.50;10495537;28;20053;-56
2022/12/09 11:50:21;;;;;;;5.50;4.40;;;;;;;20.03;43.25;95586.13;10480235;28;20048;-56
2022/12/09 11:55:46;;;;;;;7.90;4.13;;;;;;;20.02;43.27;95592.69;10496037;28;20502;-58
2022/12/09 12:01:19;;;;;;;4.13;3.67;;;;;;;20.00;43.12;95606.56;10506431;28;20041;-58
2022/12/09 12:06:47;;;;;;;4.38;3.80;;;;;;;20.01;43.21;95612.75;10480773;28;20402;-56
2022/12/09 12:12:21;;;;;;;4.63;3.42;;;;;;;19.99;43.38;95610.38;10480084;28;20056;-57
2022/12/09 12:17:42;;;;;;;3.97;3.58;;;;;;;19.99;43.42;95599.56;10479152;28;20064;-64
2022/12/09 12:23:26;;;;;;;4.30;3.47;;;;;;;19.98;43.66;95589.16;10491168;28;20052;-48
2022/12/09 12:29:10;;;;;;;6.13;3.15;;;;;;;19.99;43.75;95577.19;10479440;28;20052;-45
2022/12/09 12:35:13;;;;;;;4.22;3.35;;;;;;;19.98;44.02;95554.00;10477164;28;20415;-46
2022/12/09 12:40:44;;;;;;;4.55;3.50;;;;;;;19.99;44.19;95532.00;10478430;28;20052;-45
2022/12/09 12:46:29;;;;;;;4.60;3.38;;;;;;;20.00;44.51;95530.09;10500847;28;20040;-47
2022/12/09 12:51:52;;;;;;;4.40;3.33;;;;;;;20.00;44.69;95540.91;10477558;28;20062;-46
2022/12/09 12:57:11;;;;;;;3.88;3.38;;;;;;;20.02;45.69;95519.72;10501873;28;20052;-56
2022/12/09 13:02:46;;;;;;;6.97;3.60;;;;;;;20.03;46.06;95507.75;10501558;28;20056;-55
2022/12/09 13:08:26;;;;;;;3.78;3.17;;;;;;;20.04;46.04;95498.50;10490790;28;20178;-56
2022/12/09 13:14:00;;;;;;;4.80;3.33;;;;;;;20.05;45.93;95491.94;10489834;28;20048;-57
2022/12/09 13:19:23;;;;;;;3.88;3.20;;;;;;;20.07;45.92;95490.47;10501701;28;20064;-57
2022/12/09 13:24:49;;;;;;;3.78;2.90;;;;;;;20.08;45.87;95488.53;10485140;28;20503;-56
2022/12/09 13:30:08;;;;;;;4.00;3.47;;;;;;;20.09;45.95;95473.88;10485916;28;20191;-57
2022/12/09 13:35:34;;;;;;;5.03;3.40;;;;;;;20.09;45.88;95477.38;10501275;28;20449;-57
2022/12/09 13:40:53;;;;;;;3.38;2.95;;;;;;;20.11;45.94;95488.59;10488826;28;20068;-56
2022/12/09 13:46:19;;;;;;;4.82;3.30;;;;;;;20.12;45.70;95473.94;10499520;28;20056;-57
2022/12/09 13:51:50;;;;;;;3.97;2.85;;;;;;;20.14;45.79;95484.38;10498011;28;20052;-56
2022/12/09 13:57:39;;;;;;;3.17;2.88;;;;;;;20.15;45.52;95483.25;10508815;28;20411;-56
2022/12/09 14:03:04;;;;;;;;;;;;;;;20.18;45.57;95473.63;10504718;28;20044;-56
2022/12/09 14:08:28;;;;;;;3.33;2.90;;;;;;;20.20;45.74;95457.84;10484063;28;19974;-57
2022/12/09 14:13:48;;;;;;;4.10;3.10;;;;;;;20.22;45.56;95453.63;10502888;28;20047;-57
2022/12/09 14:19:22;;;;;;;4.47;3.03;;;;;;;20.23;45.35;95449.78;10515212;28;20101;-56
2022/12/09 14:25:21;;;;;;;4.50;3.45;;;;;;;20.25;45.67;95442.09;10498803;28;20060;-56
2022/12/09 14:30:49;;;;;;;4.38;3.20;;;;;;;20.26;44.39;95464.50;10479806;28;20063;-54
2022/12/09 14:36:15;;;;;;;5.63;4.20;;;;;;;20.28;44.53;95459.50;10496642;28;20065;-57
2022/12/09 14:41:53;;;;;;;4.53;3.70;;;;;;;20.28;44.59;95454.88;10494158;28;20048;-55
2022/12/09 14:47:17;;;;;;;4.32;3.92;;;;;;;20.32;44.41;95452.25;10512430;28;20051;-56
2022/12/09 14:52:52;;;;;;;5.55;4.15;;;;;;;20.33;44.38;95441.06;10498007;28;20045;-57
2022/12/09 14:58:19;;;;;;;5.05;4.03;;;;;;;20.34;44.43;95448.03;10497413;28;20102;-56
2022/12/09 15:03:39;;;;;;;4.63;3.67;;;;;;;20.37;44.39;95440.34;10497690;28;20053;-57
2022/12/09 15:08:58;;;;;;;8.18;4.00;;;;;;;20.38;44.44;95453.50;10484531;28;20114;-55
2022/12/09 15:14:26;;;;;;;6.72;4.30;;;;;;;20.40;43.88;95448.50;10484495;28;20056;-57
2022/12/09 15:19:46;;;;;;;;;;;;;;;20.42;43.67;95448.16;10497497;28;20048;-57
2022/12/09 15:25:16;;;;;;;8.70;4.78;;;;;;;20.43;43.97;95444.31;10496723;28;20291;-57
2022/12/09 15:30:36;;;;;;;9.23;5.18;;;;;;;20.44;43.93;95456.69;10495145;28;20044;-57
2022/12/09 15:36:07;;;;;;;13.38;4.88;;;;;;;20.46;43.93;95452.47;10495909;28;21439;-57
2022/12/09 15:47:18;;;;;;;8.85;4.82;;;;;;;20.48;44.10;95430.47;10496421;28;20065;-57
2022/12/09 15:52:41;;;;;;;8.38;4.68;;;;;;;20.49;44.07;95434.75;10494356;28;20094;-57
2022/12/09 15:58:03;;;;;;;9.10;5.28;;;;;;;20.50;44.03;95434.38;10496036;28;20055;-55
2022/12/09 16:03:26;;;;;;;10.68;4.65;;;;;;;20.51;43.93;95429.75;10495411;28;20650;-56
2022/12/09 16:08:45;;;;;;;8.13;4.72;;;;;;;20.52;44.09;95428.59;10494270;28;20037;-57
2022/12/09 16:14:05;;;;;;;8.95;4.57;;;;;;;20.54;44.04;95423.59;10487277;28;20054;-56
2022/12/09 16:19:32;;;;;;;8.32;4.45;;;;;;;20.55;44.05;95427.88;10499416;28;20064;-57
2022/12/09 16:25:02;;;;;;;8.60;5.38;;;;;;;20.58;44.04;95423.66;10503279;28;20053;-57
2022/12/09 16:30:24;;;;;;;7.93;4.68;;;;;;;20.59;44.11;95412.50;10498418;28;20048;-57
2022/12/09 16:35:57;;;;;;;7.00;4.35;;;;;;;20.59;44.22;95428.72;10488416;28;20059;-57
2022/12/09 16:41:17;;;;;;;6.50;4.50;;;;;;;20.62;44.40;95421.81;10502091;28;20048;-57
2022/12/09 16:46:38;;;;;;;6.97;4.32;;;;;;;20.62;44.40;95419.09;10487300;28;20051;-57
2022/12/09 16:51:57;;;;;;;6.32;4.30;;;;;;;20.63;44.42;95407.91;10502573;28;20407;-57
2022/12/09 16:57:18;;;;;;;7.88;4.43;;;;;;;20.64;44.38;95401.38;10502837;28;20449;-57
2022/12/09 17:02:42;;;;;;;7.50;4.38;;;;;;;20.66;44.34;95404.50;10507924;28;20365;-57
2022/12/09 17:08:02;;;;;;;6.38;4.20;;;;;;;20.67;44.34;95395.22;10501709;28;20056;-58
2022/12/09 17:13:22;;;;;;;7.35;4.43;;;;;;;20.67;44.34;95395.22;10498426;28;20049;-57
2022/12/09 17:18:42;;;;;;;5.57;4.28;;;;;;;20.69;44.18;95392.94;10501586;28;20048;-57
2022/12/09 17:24:01;;;;;;;8.05;4.30;;;;;;;20.71;44.02;95395.28;10501257;28;20113;-58
2022/12/09 17:29:21;;;;;;;5.65;3.95;;;;;;;20.72;44.12;95397.63;10500133;28;20057;-57
2022/12/09 17:34:40;;;;;;;6.03;3.75;;;;;;;20.73;44.21;95396.47;10499825;28;20109;-57
2022/12/09 17:40:01;;;;;;;5.25;3.78;;;;;;;20.75;43.96;95417.75;10499272;28;20054;-59
2022/12/09 17:45:20;;;;;;;6.30;4.07;;;;;;;20.76;44.27;95418.53;10500027;28;20060;-57
2022/12/09 17:50:39;;;;;;;6.07;3.85;;;;;;;20.77;44.23;95412.75;10499806;28;20053;-57
2022/12/09 17:56:04;;;;;;;7.15;4.70;;;;;;;20.81;44.09;95408.16;10498738;28;20061;-57
2022/12/09 18:01:24;;;;;;;7.40;4.85;;;;;;;20.82;43.93;95401.63;10512535;28;20033;-58
2022/12/09 18:06:45;;;;;;;7.65;4.20;;;;;;;20.85;43.38;95400.09;10498715;28;20382;-57
2022/12/09 18:12:04;;;;;;;6.80;4.40;;;;;;;20.89;43.59;95409.03;10497860;28;20055;-60
2022/12/09 18:17:24;;;;;;;6.03;4.28;;;;;;;20.89;43.69;95409.03;10480240;28;20052;-58
2022/12/09 18:22:43;;;;;;;5.43;4.50;;;;;;;20.90;43.58;95403.28;10495826;28;20055;-57
2022/12/09 18:28:03;;;;;;;6.43;4.90;;;;;;;20.91;44.71;95415.69;10476533;28;20060;-58
2022/12/09 18:33:23;;;;;;;7.35;6.53;;;;;;;20.93;45.08;95426.91;10478867;28;20048;-58
2022/12/09 18:38:42;;;;;;;9.65;5.97;;;;;;;20.97;46.42;95429.66;10496712;28;20048;-58
2022/12/09 18:44:05;;;;;;;8.48;5.40;;;;;;;20.99;47.54;95415.75;10511164;28;20098;-56
2022/12/09 18:49:27;;;;;;;6.63;5.22;;;;;;;21.01;47.70;95419.66;10497628;28;20052;-57
2022/12/09 18:54:47;;;;;;;9.50;5.60;;;;;;;21.05;48.42;95425.13;10492404;28;20076;-56
2022/12/09 19:00:07;;;;;;;12.60;4.97;;;;;;;21.06;47.71;95426.69;10460823;28;20040;-55
2022/12/09 19:05:26;;;;;;;6.13;4.88;;;;;;;21.07;47.84;95429.03;10458205;28;20075;-57
2022/12/09 19:10:52;;;;;;;9.50;4.53;;;;;;;21.10;47.75;95449.16;10459437;28;20063;-55
2022/12/09 19:16:11;;;;;;;5.63;4.40;;;;;;;21.10;48.17;95438.34;10459767;28;20098;-56
2022/12/09 19:21:33;;;;;;;5.68;3.63;;;;;;;21.10;47.91;95449.16;10459273;28;20045;-58
2022/12/09 19:26:54;;;;;;;5.40;4.30;;;;;;;21.10;47.82;95454.59;10455869;28;20056;-58
2022/12/09 19:32:13;;;;;;;6.20;4.13;;;;;;;21.11;47.84;95442.59;10474609;28;20491;-56
2022/12/09 19:37:32;;;;;;;5.65;3.83;;;;;;;21.11;47.74;95467.75;10496274;28;20048;-57
2022/12/09 19:42:52;;;;;;;6.47;4.65;;;;;;;21.12;47.66;95452.28;10509660;28;20044;-57
2022/12/09 19:48:11;;;;;;;6.05;4.18;;;;;;;21.10;47.78;95466.19;10496117;28;20059;-57
2022/12/09 19:53:31;;;;;;;6.60;4.00;;;;;;;21.10;47.40;95463.47;10495830;28;20048;-57
2022/12/09 19:58:52;;;;;;;4.93;3.83;;;;;;;21.09;47.52;95464.66;10496019;28;20060;-58
2022/12/09 20:04:14;;;;;;;5.10;4.00;;;;;;;21.10;47.61;95476.25;10506058;28;20052;-57
2022/12/09 20:09:35;;;;;;;6.38;4.32;;;;;;;21.08;47.77;95467.72;10496059;28;20055;-55
2022/12/09 20:14:54;;;;;;;5.70;4.20;;;;;;;21.07;47.52;95448.00;10494950;28;20412;-58
2022/12/09 20:20:14;;;;;;;4.18;3.53;;;;;;;21.06;47.49;95459.94;10494909;28;20049;-56
2022/12/09 20:25:34;;;;;;;4.25;3.30;;;;;;;21.06;47.70;95443.69;10494649;28;20061;-57
2022/12/09 20:30:54;;;;;;;4.57;3.72;;;;;;;21.05;47.78;95444.06;10495566;28;20393;-57
2022/12/09 20:36:16;;;;;;;5.70;3.80;;;;;;;21.05;47.57;95446.78;10479924;28;20110;-54
2022/12/09 20:41:35;;;;;;;4.75;3.60;;;;;;;21.03;47.58;95466.13;10494988;28;20056;-57
2022/12/09 20:46:55;;;;;;;6.45;3.75;;;;;;;21.03;47.50;95470.72;10490817;28;20075;-57
2022/12/09 20:52:15;;;;;;;5.80;3.67;;;;;;;21.03;47.60;95473.44;10495106;28;20380;-56
2022/12/09 20:57:34;;;;;;;4.65;4.10;;;;;;;21.00;47.68;95477.66;10494737;28;20098;-55
2022/12/09 21:02:53;;;;;;;4.22;3.83;;;;;;;21.01;47.62;95478.44;10508371;28;20070;-57
2022/12/09 21:08:14;;;;;;;5.85;3.83;;;;;;;20.99;47.72;95475.31;10495940;28;20056;-56
2022/12/09 21:13:35;;;;;;;3.85;3.47;;;;;;;20.97;47.74;95480.31;10515079;28;20071;-57
2022/12/09 21:18:58;;;;;;;4.13;3.55;;;;;;;20.96;47.86;95505.84;10501638;28;20098;-57
2022/12/09 21:24:18;;;;;;;5.85;3.67;;;;;;;20.96;47.64;95497.72;10501646;28;20049;-57
2022/12/09 21:29:38;;;;;;;3.65;3.20;;;;;;;20.94;47.54;95506.19;10514373;28;20055;-58
2022/12/09 21:34:57;;;;;;;4.28;3.58;;;;;;;20.93;47.92;95505.41;10514336;28;20042;-56
2022/12/09 21:40:17;;;;;;;5.07;3.63;;;;;;;20.91;47.73;95506.91;10499770;28;20507;-56
2022/12/09 21:45:36;;;;;;;3.88;3.42;;;;;;;20.89;47.83;95514.63;10500614;28;20056;-57
2022/12/09 21:50:57;;;;;;;4.88;3.70;;;;;;;20.87;47.78;95519.63;10499701;28;20110;-57
2022/12/09 21:56:19;;;;;;;5.20;3.25;;;;;;;20.85;47.79;95524.63;10500110;28;20473;-57
2022/12/09 22:01:40;;;;;;;3.70;3.40;;;;;;;20.84;47.94;95534.66;10499767;28;20089;-56
2022/12/09 22:06:59;;;;;;;3.70;3.38;;;;;;;20.81;47.65;95538.09;10500029;28;20057;-56
2022/12/09 22:12:19;;;;;;;3.50;3.08;;;;;;;20.80;47.52;95533.84;10499528;28;20047;-57
2022/12/09 22:17:38;;;;;;;4.30;3.67;;;;;;;20.78;47.73;95541.53;10496467;28;20097;-55
2022/12/09 22:22:57;;;;;;;3.45;3.15;;;;;;;20.76;47.64;95541.13;10498922;28;20052;-57
2022/12/09 22:28:17;;;;;;;3.47;3.17;;;;;;;20.74;47.56;95536.06;10499582;28;20102;-57
2022/12/09 22:33:37;;;;;;;3.65;3.30;;;;;;;20.74;47.58;95540.69;10497894;28;20052;-56
2022/12/09 22:38:57;;;;;;;5.88;3.30;;;;;;;20.71;47.82;95525.94;10508153;28;20060;-57
2022/12/09 22:44:18;;;;;;;4.93;3.47;;;;;;;20.71;47.77;95527.88;10511630;28;20042;-57
2022/12/09 22:49:38;;;;;;;3.90;3.50;;;;;;;20.68;47.66;95523.97;10497359;28;20048;-56
2022/12/09 22:54:58;;;;;;;3.70;3.20;;;;;;;20.67;47.85;95530.53;10497901;28;20106;-57
2022/12/09 23:00:17;;;;;;;3.63;3.10;;;;;;;20.65;48.10;95530.09;10497653;28;20049;-57
2022/12/09 23:05:36;;;;;;;3.33;2.88;;;;;;;20.64;47.98;95533.16;10510936;28;20071;-56
2022/12/09 23:11:04;;;;;;;3.67;3.30;;;;;;;20.63;47.92;95542.44;10497094;28;20126;-57
2022/12/09 23:16:24;;;;;;;3.78;3.22;;;;;;;20.62;47.86;95533.53;10497175;28;20071;-57
2022/12/09 23:21:43;;;;;;;4.20;2.97;;;;;;;20.59;48.06;95528.84;10487764;28;20044;-54
2022/12/09 23:27:03;;;;;;;4.97;3.20;;;;;;;20.58;48.21;95527.28;10496260;28;20098;-57
2022/12/09 23:32:22;;;;;;;3.40;3.10;;;;;;;20.55;48.19;95526.03;10495914;28;20090;-58
2022/12/09 23:37:42;;;;;;;4.28;3.08;;;;;;;20.55;48.26;95525.28;10495114;28;20053;-58
2022/12/09 23:43:01;;;;;;;4.05;3.30;;;;;;;20.52;48.40;95528.69;10491908;28;20056;-56
2022/12/09 23:48:21;;;;;;;3.28;2.97;;;;;;;20.50;48.43;95534.47;10497808;28;20113;-57
2022/12/09 23:53:42;;;;;;;3.05;2.75;;;;;;;20.49;48.32;95542.94;10495813;28;20090;-57
2022/12/09 23:59:05;;;;;;;3.97;3.13;;;;;;;20.47;48.37;95548.72;10496208;28;20056;-57
